East Wenona, Illinois
Current Conditions -  °F | °C
As of 5:15 PM on Wednesday 17 Dec 2014 (Local Time) from KC75 Reporting Station
Overcast Overcast  
Wind Chill: 22°   Ceiling: 2700
Heat Index: 27°   Visibility: 10mi
Dew Point: 20°   Wind: 5mph
Humidity: 74%   Direction: 330°NNW
Pressure: 30.28"   Gusts: NA
Location:  41.0632°N, 89.0208°W
Report Text: KC75 172315Z AUTO 33004KT 10SM OVC027 M03/M07 A3028 RMK AO2 T10281069
Loading
Personal Weather Stations






























Interactive Weather Map New forecast layout! Learn more

10-Day Weather Forecast

Advertisements
Track Severe Weather on mobile